createdAt,value
2017-07-27T00:02:23.506Z,61.26
2017-07-27T00:04:56.122Z,61.37
2017-07-27T00:07:29.046Z,61.40
2017-07-27T00:10:01.864Z,61.36
2017-07-27T00:12:34.665Z,61.25
2017-07-27T00:15:08.184Z,61.41
2017-07-27T00:17:40.622Z,61.54
2017-07-27T00:20:12.953Z,61.60
2017-07-27T00:22:45.868Z,61.58
2017-07-27T00:25:20.290Z,61.54
2017-07-27T00:27:52.749Z,61.28
2017-07-27T00:30:27.096Z,61.21
2017-07-27T00:32:59.991Z,61.29
2017-07-27T00:35:32.386Z,61.49
2017-07-27T00:38:05.365Z,61.47
2017-07-27T00:40:38.172Z,61.35
2017-07-27T00:43:10.840Z,61.23
2017-07-27T00:45:44.313Z,61.42
2017-07-27T00:48:16.448Z,61.24
2017-07-27T00:50:48.893Z,61.28
2017-07-27T00:53:23.835Z,61.29
2017-07-27T00:55:56.514Z,61.39
2017-07-27T00:58:29.107Z,61.10
2017-07-27T01:01:03.341Z,61.17
2017-07-27T01:03:36.426Z,61.20
2017-07-27T01:06:08.921Z,61.13
2017-07-27T01:08:41.270Z,61.25
2017-07-27T01:11:14.377Z,61.23
2017-07-27T01:13:47.123Z,61.27
2017-07-27T01:16:23.294Z,61.23
2017-07-27T01:18:57.123Z,61.39
2017-07-27T01:21:29.125Z,61.28
2017-07-27T01:24:02.016Z,61.21
2017-07-27T01:26:34.046Z,61.20
2017-07-27T01:29:07.490Z,61.27
2017-07-27T01:31:40.887Z,61.25
2017-07-27T01:34:13.363Z,61.17
2017-07-27T01:36:46.661Z,61.01
2017-07-27T01:39:25.211Z,61.03
2017-07-27T01:41:58.031Z,61.08
2017-07-27T01:44:31.770Z,60.94
2017-07-27T01:47:04.222Z,61.13
2017-07-27T01:49:36.479Z,61.24
2017-07-27T01:52:09.232Z,61.11
2017-07-27T01:54:42.070Z,61.09
2017-07-27T01:57:14.686Z,61.09
2017-07-27T01:59:47.053Z,61.01
2017-07-27T02:02:22.444Z,60.98
2017-07-27T02:04:56.231Z,61.02
2017-07-27T02:07:29.007Z,61.19
2017-07-27T02:10:01.517Z,60.66
2017-07-27T02:12:34.152Z,60.84
2017-07-27T02:15:07.137Z,60.85
2017-07-27T02:17:39.807Z,61.08
2017-07-27T02:20:12.236Z,61.13
2017-07-27T02:22:44.182Z,61.18
2017-07-27T02:25:17.116Z,61.12
2017-07-27T02:27:50.333Z,61.11
2017-07-27T02:30:25.438Z,61.04
2017-07-27T02:32:57.907Z,61.11
2017-07-27T02:35:30.366Z,61.03
2017-07-27T02:38:02.405Z,61.16
2017-07-27T02:40:35.642Z,60.90
2017-07-27T02:43:08.845Z,60.92
2017-07-27T02:45:42.343Z,60.86
2017-07-27T02:48:16.456Z,60.87
2017-07-27T02:50:49.255Z,60.82
2017-07-27T02:53:24.775Z,60.83
2017-07-27T02:55:56.806Z,60.76
2017-07-27T02:58:29.072Z,60.84
2017-07-27T03:01:01.063Z,60.83
2017-07-27T03:03:33.493Z,60.89
2017-07-27T03:06:05.460Z,60.79
2017-07-27T03:08:37.653Z,60.68
2017-07-27T03:11:09.780Z,60.74
2017-07-27T03:13:42.458Z,60.71
2017-07-27T03:16:15.122Z,60.96
2017-07-27T03:18:47.386Z,60.64
2017-07-27T03:21:24.311Z,60.57
2017-07-27T03:23:57.282Z,60.62
2017-07-27T03:26:29.881Z,60.78
2017-07-27T03:29:02.900Z,60.86
2017-07-27T03:31:34.981Z,60.80
2017-07-27T03:34:07.034Z,60.84
2017-07-27T03:36:40.358Z,60.84
2017-07-27T03:39:12.794Z,60.80
2017-07-27T03:41:45.092Z,61.03
2017-07-27T03:44:20.799Z,61.00
2017-07-27T03:46:53.904Z,60.68
2017-07-27T03:49:28.178Z,60.48
2017-07-27T03:52:04.508Z,60.74
2017-07-27T03:54:39.615Z,60.82
2017-07-27T03:57:11.666Z,60.64
2017-07-27T03:59:44.992Z,60.74
2017-07-27T04:02:17.585Z,60.70
2017-07-27T04:04:56.870Z,60.84
2017-07-27T04:07:28.888Z,60.77
2017-07-27T04:10:00.926Z,60.86
2017-07-27T04:12:34.110Z,60.84
2017-07-27T04:15:06.337Z,60.71
2017-07-27T04:17:38.772Z,60.77
2017-07-27T04:20:11.783Z,60.65
2017-07-27T04:22:44.634Z,60.81
2017-07-27T04:25:25.861Z,60.71
2017-07-27T04:27:58.358Z,60.84
2017-07-27T04:30:31.632Z,60.80
2017-07-27T04:33:04.199Z,60.76
2017-07-27T04:35:37.114Z,60.81
2017-07-27T04:38:09.654Z,60.94
2017-07-27T04:40:42.250Z,60.88
2017-07-27T04:43:14.922Z,60.78
2017-07-27T04:45:47.832Z,60.73
2017-07-27T04:48:24.665Z,60.86
2017-07-27T04:50:56.983Z,60.68
2017-07-27T04:53:29.289Z,60.68
2017-07-27T04:56:01.614Z,60.55
2017-07-27T04:58:34.825Z,60.61
2017-07-27T05:01:06.983Z,60.75
2017-07-27T05:03:38.945Z,60.75
2017-07-27T05:06:11.336Z,60.56
2017-07-27T05:08:44.457Z,60.41
2017-07-27T05:11:16.987Z,60.54
2017-07-27T05:13:49.525Z,60.72
2017-07-27T05:16:25.416Z,61.08
2017-07-27T05:19:01.675Z,60.76
2017-07-27T05:21:37.299Z,60.90
2017-07-27T05:25:05.303Z,60.92
2017-07-27T05:28:10.077Z,60.73
2017-07-27T05:31:18.102Z,60.85
2017-07-27T05:34:36.112Z,61.03
2017-07-27T05:37:47.391Z,61.05
2017-07-27T05:40:51.850Z,60.98
2017-07-27T05:44:44.380Z,61.20
2017-07-27T05:54:37.911Z,61.41
2017-07-27T06:01:02.451Z,61.70
2017-07-27T06:10:42.055Z,62.53
2017-07-27T06:13:22.681Z,62.16
2017-07-27T06:15:57.410Z,62.51
2017-07-27T06:18:30.767Z,63.74
2017-07-27T06:21:04.666Z,63.71
2017-07-27T06:23:55.864Z,62.43
2017-07-27T06:26:32.279Z,62.39
2017-07-27T06:29:06.334Z,62.31
2017-07-27T06:31:40.844Z,62.20
2017-07-27T06:34:15.637Z,61.99
2017-07-27T06:37:26.046Z,62.06
2017-07-27T06:40:02.985Z,62.20
2017-07-27T06:43:02.182Z,62.07
2017-07-27T06:45:36.396Z,62.07
2017-07-27T06:48:09.990Z,61.93
2017-07-27T06:50:42.800Z,62.05
2017-07-27T06:53:17.070Z,61.95
2017-07-27T06:55:49.945Z,61.92
2017-07-27T06:58:25.918Z,61.98
2017-07-27T07:00:58.264Z,61.87
2017-07-27T07:03:30.658Z,61.65
2017-07-27T07:06:04.711Z,61.66
2017-07-27T07:08:42.263Z,61.61
2017-07-27T07:11:17.135Z,61.82
2017-07-27T07:13:49.872Z,61.72
2017-07-27T07:16:23.549Z,61.88
2017-07-27T07:18:56.887Z,61.99
2017-07-27T07:21:28.808Z,61.97
2017-07-27T07:24:01.489Z,61.78
2017-07-27T07:26:35.227Z,61.89
2017-07-27T07:29:08.083Z,61.80
2017-07-27T07:31:40.490Z,61.82
2017-07-27T07:34:13.530Z,61.81
2017-07-27T07:36:45.973Z,61.72
2017-07-27T07:39:17.967Z,62.06
2017-07-27T07:41:51.461Z,62.05
2017-07-27T07:44:24.051Z,62.05
2017-07-27T07:46:56.131Z,62.10
2017-07-27T07:49:29.366Z,62.12
2017-07-27T07:52:03.435Z,62.02
2017-07-27T07:54:37.305Z,62.11
2017-07-27T07:57:10.301Z,62.16
2017-07-27T07:59:44.817Z,61.92
2017-07-27T08:02:20.641Z,61.60
2017-07-27T08:04:55.069Z,61.62
2017-07-27T08:07:28.376Z,61.78
2017-07-27T08:10:31.747Z,61.79
2017-07-27T08:13:05.999Z,61.62
2017-07-27T08:15:40.100Z,61.66
2017-07-27T08:18:12.773Z,61.74
2017-07-27T08:20:46.210Z,61.73
2017-07-27T08:23:19.992Z,61.86
2017-07-27T08:25:57.139Z,62.01
2017-07-27T08:28:30.872Z,61.87
2017-07-27T08:31:04.656Z,61.76
2017-07-27T08:33:37.192Z,61.69
2017-07-27T08:36:10.603Z,61.71
2017-07-27T08:38:44.694Z,61.70
2017-07-27T08:41:21.217Z,61.79
2017-07-27T08:43:53.725Z,61.90
2017-07-27T08:46:26.680Z,61.83
2017-07-27T08:48:58.681Z,61.82
2017-07-27T08:51:32.036Z,61.92
2017-07-27T08:54:04.709Z,61.90
2017-07-27T08:56:37.180Z,62.00
2017-07-27T08:59:09.146Z,61.95
2017-07-27T09:01:45.309Z,61.89
2017-07-27T09:04:22.892Z,61.96
2017-07-27T09:06:56.809Z,61.99
2017-07-27T09:09:31.619Z,61.99
2017-07-27T09:12:06.425Z,62.05
2017-07-27T09:14:40.081Z,62.01
2017-07-27T09:17:12.049Z,62.02
2017-07-27T09:19:47.426Z,61.91
2017-07-27T09:22:21.086Z,62.04
2017-07-27T09:24:53.242Z,62.06
2017-07-27T09:27:29.553Z,62.15
2017-07-27T09:30:02.367Z,62.09
2017-07-27T09:32:47.705Z,61.98
2017-07-27T09:35:23.306Z,62.13
2017-07-27T09:37:55.404Z,62.23
2017-07-27T09:40:28.936Z,62.04
2017-07-27T09:43:00.864Z,62.15
2017-07-27T09:45:32.853Z,62.24
2017-07-27T09:48:06.133Z,62.23
2017-07-27T09:50:38.223Z,62.28
2017-07-27T09:53:10.517Z,62.33
2017-07-27T09:55:42.792Z,62.19
2017-07-27T09:58:14.812Z,62.35
2017-07-27T10:00:49.265Z,62.32
2017-07-27T10:03:23.271Z,62.25
2017-07-27T10:05:56.648Z,62.24
2017-07-27T10:08:30.322Z,62.31
2017-07-27T10:11:02.716Z,62.29
2017-07-27T10:13:39.868Z,62.33
2017-07-27T10:16:11.969Z,62.22
2017-07-27T10:18:44.728Z,62.30
2017-07-27T10:21:17.123Z,62.42
2017-07-27T10:24:10.045Z,62.41
2017-07-27T10:26:43.353Z,62.34
2017-07-27T10:29:15.501Z,62.24
2017-07-27T10:31:47.445Z,62.35
2017-07-27T10:34:22.497Z,62.14
2017-07-27T10:37:05.709Z,62.15
2017-07-27T10:39:47.053Z,62.30
2017-07-27T10:42:23.273Z,62.06
2017-07-27T10:45:00.943Z,62.10
2017-07-27T10:47:40.986Z,62.16
2017-07-27T10:50:26.196Z,62.13
2017-07-27T10:52:58.378Z,61.86
2017-07-27T10:55:32.956Z,62.16
2017-07-27T10:58:09.384Z,62.42
2017-07-27T11:00:41.853Z,62.33
2017-07-27T11:03:14.659Z,62.30
2017-07-27T11:05:52.590Z,62.50
2017-07-27T11:08:27.518Z,62.39
2017-07-27T11:11:00.723Z,62.31
2017-07-27T11:13:32.786Z,61.72
2017-07-27T11:16:06.015Z,61.73
2017-07-27T11:18:38.405Z,61.69
2017-07-27T11:21:10.744Z,61.96
2017-07-27T11:23:43.328Z,61.83
2017-07-27T11:26:15.962Z,62.01
2017-07-27T11:28:48.125Z,61.94
2017-07-27T11:31:21.947Z,61.90
2017-07-27T11:33:56.353Z,61.30
2017-07-27T11:36:29.009Z,61.14
2017-07-27T11:39:01.099Z,61.27
2017-07-27T11:41:33.586Z,60.93
2017-07-27T11:44:06.695Z,61.06
2017-07-27T11:46:44.917Z,60.74
2017-07-27T11:49:17.750Z,60.52
2017-07-27T11:51:51.501Z,60.65
2017-07-27T11:54:25.078Z,60.52
2017-07-27T11:56:57.873Z,60.53
2017-07-27T11:59:29.926Z,60.59
2017-07-27T12:02:04.294Z,60.40
2017-07-27T12:04:36.373Z,60.54
2017-07-27T12:07:08.704Z,60.78
2017-07-27T12:09:42.319Z,60.66
2017-07-27T12:12:14.323Z,60.62
2017-07-27T12:14:47.645Z,60.35
2017-07-27T12:17:21.816Z,60.46
2017-07-27T12:19:56.440Z,60.30
2017-07-27T12:22:28.979Z,60.25
2017-07-27T12:25:01.105Z,60.36
2017-07-27T12:27:34.245Z,60.38
2017-07-27T12:30:07.695Z,60.45
2017-07-27T12:32:39.814Z,60.56
2017-07-27T12:35:13.646Z,60.55
2017-07-27T12:37:45.705Z,60.31
2017-07-27T12:40:27.156Z,60.36
2017-07-27T12:42:59.381Z,60.36
2017-07-27T12:45:32.256Z,60.30
2017-07-27T12:48:05.053Z,60.29
2017-07-27T12:50:37.805Z,60.29
2017-07-27T12:53:09.918Z,60.18
2017-07-27T12:55:42.173Z,60.09
2017-07-27T12:58:14.544Z,60.00
2017-07-27T13:00:46.820Z,59.69
2017-07-27T13:03:21.129Z,59.54
2017-07-27T13:06:02.280Z,59.63
2017-07-27T13:08:36.211Z,59.46
2017-07-27T13:11:08.545Z,59.79
2017-07-27T13:13:42.028Z,59.67
2017-07-27T13:17:45.008Z,59.54
2017-07-27T13:20:17.989Z,59.65
2017-07-27T13:22:52.681Z,59.44
2017-07-27T13:25:26.271Z,59.50
2017-07-27T13:27:59.424Z,59.40
2017-07-27T13:30:32.382Z,59.21
2017-07-27T13:33:05.548Z,59.26
2017-07-27T13:35:38.757Z,59.00
2017-07-27T13:38:12.914Z,59.03
2017-07-27T13:40:44.941Z,59.02
2017-07-27T13:43:17.172Z,59.13
2017-07-27T13:45:49.909Z,59.20
2017-07-27T13:48:22.108Z,59.22
2017-07-27T13:50:55.834Z,59.16
2017-07-27T13:53:28.962Z,59.04
2017-07-27T13:56:01.873Z,58.76
2017-07-27T13:58:35.137Z,58.79
2017-07-27T14:01:07.563Z,58.65
2017-07-27T14:03:43.483Z,58.82
2017-07-27T14:06:18.340Z,58.58
2017-07-27T14:08:52.046Z,58.65
2017-07-27T14:11:26.523Z,58.65
2017-07-27T14:13:58.550Z,58.65
2017-07-27T14:16:30.521Z,58.76
2017-07-27T14:19:15.290Z,58.95
2017-07-27T14:21:49.349Z,58.78
2017-07-27T14:24:23.435Z,58.83
2017-07-27T14:26:56.088Z,58.95
2017-07-27T14:29:28.045Z,59.15
2017-07-27T14:32:00.069Z,58.89
2017-07-27T14:34:35.138Z,59.16
2017-07-27T14:37:08.545Z,59.12
2017-07-27T14:39:40.745Z,59.08
2017-07-27T14:42:14.509Z,59.27
2017-07-27T14:44:47.938Z,59.10
2017-07-27T14:47:22.928Z,59.07
2017-07-27T14:49:55.801Z,59.12
2017-07-27T14:52:28.280Z,59.02
2017-07-27T14:55:00.418Z,59.20
2017-07-27T14:57:32.418Z,58.96
2017-07-27T15:00:06.085Z,58.91
2017-07-27T15:02:38.689Z,58.76
2017-07-27T15:05:13.446Z,58.80
2017-07-27T15:07:46.163Z,58.77
2017-07-27T15:10:19.304Z,58.73
2017-07-27T15:12:52.773Z,58.89
2017-07-27T15:15:27.192Z,58.98
2017-07-27T15:18:08.953Z,58.96
2017-07-27T15:20:45.582Z,58.97
2017-07-27T15:23:22.248Z,59.04
2017-07-27T15:25:54.251Z,59.07
2017-07-27T15:28:26.613Z,59.17
2017-07-27T15:30:58.816Z,59.30
2017-07-27T15:33:31.768Z,59.50
2017-07-27T15:36:06.350Z,59.35
2017-07-27T15:38:39.667Z,59.42
2017-07-27T15:41:11.769Z,59.39
2017-07-27T15:43:44.570Z,59.19
2017-07-27T15:46:16.655Z,59.26
2017-07-27T15:48:48.930Z,59.30
2017-07-27T15:51:26.816Z,59.26
2017-07-27T15:53:58.739Z,59.36
2017-07-27T15:56:32.350Z,59.58
2017-07-27T15:59:06.773Z,59.68
2017-07-27T16:04:21.117Z,59.97
2017-07-27T16:07:01.338Z,60.51
2017-07-27T16:09:34.926Z,61.07
2017-07-27T16:12:07.322Z,61.33
2017-07-27T16:14:40.036Z,61.16
2017-07-27T16:17:17.047Z,60.93
2017-07-27T16:19:56.277Z,60.72
2017-07-27T16:22:28.302Z,60.66
2017-07-27T16:25:00.658Z,60.98
2017-07-27T16:27:33.578Z,61.19
2017-07-27T16:30:15.085Z,61.69
2017-07-27T16:32:47.293Z,61.62
2017-07-27T16:35:20.814Z,61.64
2017-07-27T16:37:52.839Z,61.65
2017-07-27T16:40:33.211Z,62.15
2017-07-27T16:43:07.035Z,62.38
2017-07-27T16:45:39.412Z,62.46
2017-07-27T16:48:15.425Z,62.83
2017-07-27T16:50:47.649Z,63.13
2017-07-27T16:53:26.315Z,63.23
2017-07-27T17:02:05.499Z,63.00
2017-07-27T17:07:38.033Z,62.91
2017-07-27T17:10:20.375Z,63.18
2017-07-27T17:12:52.612Z,63.29
2017-07-27T17:15:32.174Z,63.54
2017-07-27T17:21:02.861Z,63.74
2017-07-27T17:26:43.815Z,63.87
2017-07-27T17:29:18.193Z,63.74
2017-07-27T17:32:10.021Z,63.91
2017-07-27T17:34:43.659Z,63.71
2017-07-27T17:37:19.842Z,63.68
2017-07-27T17:39:54.606Z,63.65
2017-07-27T17:42:28.687Z,63.61
2017-07-27T17:45:01.155Z,63.59
2017-07-27T17:47:34.487Z,63.60
2017-07-27T17:50:07.237Z,63.51
2017-07-27T17:52:39.832Z,63.42
2017-07-27T17:55:13.460Z,63.36
2017-07-27T17:57:45.809Z,63.47
2017-07-27T18:00:22.262Z,63.42
2017-07-27T18:02:55.373Z,63.43
2017-07-27T18:05:28.265Z,63.18
2017-07-27T18:08:00.252Z,62.92
2017-07-27T18:10:32.285Z,63.19
2017-07-27T18:13:04.556Z,63.28
2017-07-27T18:15:36.824Z,63.32
2017-07-27T18:20:48.947Z,63.23
2017-07-27T18:23:24.697Z,63.25
2017-07-27T18:25:56.688Z,63.27
2017-07-27T18:28:28.992Z,63.31
2017-07-27T18:31:12.890Z,63.41
2017-07-27T18:33:45.217Z,63.37
2017-07-27T18:36:17.724Z,63.52
2017-07-27T18:38:52.900Z,63.50
2017-07-27T18:41:27.125Z,63.49
2017-07-27T18:43:59.261Z,63.59
2017-07-27T18:46:35.118Z,63.71
2017-07-27T18:49:09.917Z,63.84
2017-07-27T18:51:42.421Z,63.69
2017-07-27T18:54:14.912Z,63.76
2017-07-27T18:56:47.530Z,63.72
2017-07-27T18:59:24.332Z,63.96
2017-07-27T19:01:56.542Z,63.95
2017-07-27T19:04:28.837Z,63.95
2017-07-27T19:07:01.790Z,63.97
2017-07-27T19:09:33.950Z,63.93
2017-07-27T19:12:06.718Z,63.91
2017-07-27T19:14:39.798Z,63.86
2017-07-27T19:17:13.056Z,63.83
2017-07-27T19:19:46.325Z,63.97
2017-07-27T19:22:21.007Z,63.83
2017-07-27T19:24:53.375Z,63.99
2017-07-27T19:27:27.102Z,63.95
2017-07-27T19:29:59.411Z,64.11
2017-07-27T19:32:31.479Z,64.08
2017-07-27T19:35:04.269Z,64.17
2017-07-27T19:37:36.444Z,64.24
2017-07-27T19:40:09.551Z,64.20
2017-07-27T19:42:41.832Z,64.14
2017-07-27T19:45:14.701Z,64.26
2017-07-27T19:47:47.201Z,64.26
2017-07-27T19:50:19.191Z,64.16
2017-07-27T19:52:53.837Z,64.02
2017-07-27T19:55:26.923Z,63.87
2017-07-27T19:57:59.039Z,63.82
2017-07-27T20:00:31.545Z,64.07
2017-07-27T20:03:03.864Z,63.97
2017-07-27T20:05:36.004Z,64.02
2017-07-27T20:08:08.457Z,64.07
2017-07-27T20:10:40.446Z,64.10
2017-07-27T20:13:12.451Z,64.08
2017-07-27T20:15:45.002Z,64.14
2017-07-27T20:18:17.231Z,64.19
2017-07-27T20:20:49.748Z,64.22
2017-07-27T20:23:25.780Z,64.19
2017-07-27T20:25:57.982Z,64.15
2017-07-27T20:28:30.623Z,64.18
2017-07-27T20:31:02.659Z,63.97
2017-07-27T20:33:35.795Z,64.17
2017-07-27T20:36:07.935Z,64.15
2017-07-27T20:38:39.974Z,64.18
2017-07-27T20:41:11.973Z,64.23
2017-07-27T20:43:44.454Z,64.13
2017-07-27T20:46:16.479Z,63.99
2017-07-27T20:48:48.876Z,64.09
2017-07-27T20:51:22.777Z,64.03
2017-07-27T20:53:54.842Z,63.98
2017-07-27T20:56:27.115Z,64.05
2017-07-27T20:58:59.779Z,64.05
2017-07-27T21:01:32.111Z,63.99
2017-07-27T21:04:05.148Z,64.08
2017-07-27T21:06:37.293Z,64.05
2017-07-27T21:09:09.482Z,63.94
2017-07-27T21:11:41.684Z,63.95
2017-07-27T21:14:13.803Z,64.00
2017-07-27T21:16:46.473Z,64.04
2017-07-27T21:19:20.742Z,64.06
2017-07-27T21:21:53.513Z,64.03
2017-07-27T21:24:26.897Z,64.00
2017-07-27T21:26:59.070Z,64.04
2017-07-27T21:29:31.525Z,64.04
2017-07-27T21:32:04.103Z,64.00
2017-07-27T21:34:36.672Z,63.95
2017-07-27T21:37:09.675Z,64.05
2017-07-27T21:39:42.085Z,64.15
2017-07-27T21:42:14.294Z,64.09
2017-07-27T21:44:46.510Z,64.10
2017-07-27T21:47:20.026Z,64.15
2017-07-27T21:49:56.667Z,64.25
2017-07-27T21:52:29.599Z,64.24
2017-07-27T21:55:01.956Z,64.17
2017-07-27T21:57:34.131Z,64.12
2017-07-27T22:00:07.320Z,64.18
2017-07-27T22:02:39.788Z,64.10
2017-07-27T22:05:12.530Z,64.13
2017-07-27T22:07:47.647Z,64.12
2017-07-27T22:10:22.489Z,64.19
2017-07-27T22:12:55.354Z,64.24
2017-07-27T22:15:29.224Z,64.02
2017-07-27T22:18:02.343Z,63.66
2017-07-27T22:20:35.239Z,63.43
2017-07-27T22:23:07.280Z,63.31
2017-07-27T22:25:39.400Z,63.54
2017-07-27T22:28:11.864Z,63.48
2017-07-27T22:30:44.014Z,63.49
2017-07-27T22:36:28.366Z,63.37
2017-07-27T22:39:40.236Z,63.38
2017-07-27T22:42:33.475Z,64.00
2017-07-27T22:45:13.273Z,64.01
2017-07-27T22:47:46.832Z,64.16
2017-07-27T22:50:24.681Z,64.20
2017-07-27T22:55:40.834Z,64.54
2017-07-27T22:58:13.588Z,64.64
2017-07-27T23:00:46.280Z,64.64
2017-07-27T23:03:22.000Z,64.60
2017-07-27T23:05:54.138Z,64.58
2017-07-27T23:08:29.183Z,64.47
2017-07-27T23:11:01.890Z,64.57
2017-07-27T23:13:35.407Z,64.72
2017-07-27T23:16:07.974Z,64.81
2017-07-27T23:18:40.267Z,64.80
2017-07-27T23:21:13.020Z,64.71
2017-07-27T23:23:45.272Z,64.59
2017-07-27T23:26:18.241Z,64.67
2017-07-27T23:28:52.974Z,64.36
2017-07-27T23:31:32.273Z,64.36
2017-07-27T23:34:04.463Z,64.63
2017-07-27T23:36:37.052Z,64.64
2017-07-27T23:39:11.813Z,64.59
2017-07-27T23:41:44.563Z,64.51
2017-07-27T23:44:17.246Z,64.25
2017-07-27T23:46:49.775Z,64.33
2017-07-27T23:49:25.709Z,64.48
2017-07-27T23:51:59.454Z,64.43
2017-07-27T23:54:33.559Z,64.62
2017-07-27T23:57:07.826Z,64.46
2017-07-27T23:59:39.855Z,64.34
